Time;durP1;ratioP1;P1;durP2;ratioP2;P2;SDS_P1;SDS_P2;PMS_P1;PMS_P2;Temp;Humidity;BMP_temperature;BMP_pressure;BME280_temperature;BME280_humidity;BME280_pressure;Samples;Min_cycle;Max_cycle;Signal;HPM_P1;HPM_P2
2024/02/16 00:00:12;;;;;;;6.90;4.60;;;;;;;-146.25;100.00;52676.41;2079906;28;34137;-62
2024/02/16 00:01:14;;;;;;;8.88;5.00;;;;;;;-146.25;100.00;52650.03;2080788;28;20698;-62
2024/02/16 00:02:17;;;;;;;7.97;4.28;;;;;;;-146.25;100.00;52662.22;2079673;28;36162;-62
2024/02/16 00:03:19;;;;;;;6.45;4.00;;;;;;;-146.25;100.00;52639.91;2080160;28;34090;-62
2024/02/16 00:04:21;;;;;;;7.40;4.40;;;;;;;-146.25;100.00;52637.88;2079300;28;35069;-64
2024/02/16 00:05:23;;;;;;;7.93;4.30;;;;;;;-146.25;100.00;52635.84;2079968;28;33915;-64
2024/02/16 00:06:25;;;;;;;8.48;3.95;;;;;;;-146.25;100.00;52639.91;2079784;28;37057;-64
2024/02/16 00:07:27;;;;;;;6.95;4.15;;;;;;;-146.25;100.00;52635.84;2080408;28;20463;-63
2024/02/16 00:08:29;;;;;;;7.38;4.30;;;;;;;-146.25;100.00;52664.22;2079963;28;35635;-62
2024/02/16 00:09:33;;;;;;;9.48;4.30;;;;;;;-146.25;100.00;52641.94;2079787;28;33300;-63
2024/02/16 00:10:34;;;;;;;7.45;4.07;;;;;;;-146.25;100.00;52660.19;2079724;28;35139;-63
2024/02/16 00:11:37;;;;;;;7.18;3.80;;;;;;;-146.25;100.00;52654.09;2079773;28;36828;-63
2024/02/16 00:12:40;;;;;;;8.63;4.22;;;;;;;-146.25;100.00;52664.22;2080169;28;22199;-63
2024/02/16 00:13:41;;;;;;;7.70;3.80;;;;;;;-146.25;100.00;52656.13;2080321;28;20997;-63
2024/02/16 00:14:45;;;;;;;5.70;3.80;;;;;;;-146.25;100.00;52637.88;2079729;28;35208;-63
2024/02/16 00:15:48;;;;;;;5.22;3.50;;;;;;;-146.25;100.00;52648.00;2080131;28;20153;-63
2024/02/16 00:16:49;;;;;;;8.25;3.55;;;;;;;-146.25;100.00;52648.00;2080255;28;24729;-63
2024/02/16 00:17:51;;;;;;;6.55;3.67;;;;;;;-146.25;100.00;52680.47;2079876;28;35210;-63
2024/02/16 00:18:53;;;;;;;6.80;3.63;;;;;;;-146.25;100.00;52645.97;2079818;28;36772;-63
2024/02/16 00:19:58;;;;;;;6.18;3.60;;;;;;;-146.25;100.00;52633.81;2080163;28;20034;-63
2024/02/16 00:21:01;;;;;;;6.68;3.80;;;;;;;-146.25;100.00;52672.34;2079549;28;36363;-63
2024/02/16 00:22:03;;;;;;;7.70;3.70;;;;;;;-146.25;100.00;52696.69;2079495;28;33613;-63
2024/02/16 00:23:06;;;;;;;6.15;3.42;;;;;;;-146.25;100.00;52648.00;2079705;28;33613;-63
2024/02/16 00:24:09;;;;;;;4.88;3.60;;;;;;;-146.25;100.00;52684.50;2079522;28;35013;-63
2024/02/16 00:25:11;;;;;;;5.38;3.10;;;;;;;-146.25;100.00;52656.13;2080357;28;20033;-63
2024/02/16 00:26:13;;;;;;;6.72;3.53;;;;;;;-146.25;100.00;52652.06;2079424;28;36589;-63
2024/02/16 00:27:15;;;;;;;6.53;3.60;;;;;;;-146.25;100.00;52643.97;2080014;28;28702;-63
2024/02/16 00:28:17;;;;;;;6.82;3.58;;;;;;;-146.25;100.00;52637.88;2079837;28;24719;-63
2024/02/16 00:29:19;;;;;;;8.27;3.15;;;;;;;-146.25;100.00;52650.03;2079776;28;33844;-63
2024/02/16 00:30:22;;;;;;;10.38;3.50;;;;;;;-146.25;100.00;52678.44;2080353;28;20041;-63
2024/02/16 00:31:27;;;;;;;9.55;3.40;;;;;;;-146.25;100.00;52643.97;2079538;28;38136;-62
2024/02/16 00:32:31;;;;;;;7.22;3.30;;;;;;;-146.25;100.00;52668.28;2079748;28;32728;-63
2024/02/16 00:33:33;;;;;;;8.85;3.60;;;;;;;-146.25;100.00;52662.22;2080038;28;20045;-64
2024/02/16 00:34:36;;;;;;;4.85;2.95;;;;;;;-146.25;100.00;52652.06;2071408;28;37169;-63
2024/02/16 00:35:40;;;;;;;5.95;3.30;;;;;;;-146.25;100.00;52648.00;2072083;28;20085;-63
2024/02/16 00:36:42;;;;;;;7.70;3.50;;;;;;;-146.25;100.00;52692.63;2070985;28;29677;-63
2024/02/16 00:37:45;;;;;;;6.45;3.00;;;;;;;-146.25;100.00;52672.34;2072711;28;20173;-63
2024/02/16 00:38:47;;;;;;;5.00;3.22;;;;;;;-146.25;100.00;52656.13;2071411;28;37088;-63
2024/02/16 00:39:49;;;;;;;4.65;3.33;;;;;;;-146.25;100.00;52672.34;2071252;28;35702;-63
2024/02/16 00:40:50;;;;;;;6.78;3.30;;;;;;;-146.25;100.00;52670.31;2071812;28;32357;-63
2024/02/16 00:41:52;;;;;;;8.82;3.50;;;;;;;-146.25;100.00;52668.28;2071109;28;37336;-63
2024/02/16 00:42:55;;;;;;;9.15;3.65;;;;;;;-146.25;100.00;52650.03;2072346;28;20043;-63
2024/02/16 00:43:57;;;;;;;9.73;3.88;;;;;;;-146.25;100.00;52633.81;2071288;28;33590;-63
2024/02/16 00:45:01;;;;;;;9.05;3.90;;;;;;;-146.25;100.00;52650.03;2063030;28;35127;-63
2024/02/16 00:46:03;;;;;;;5.78;3.60;;;;;;;-146.25;100.00;52656.13;2062554;28;32931;-63
2024/02/16 00:47:05;;;;;;;5.40;3.40;;;;;;;-146.25;100.00;52654.09;2071540;28;37560;-63
2024/02/16 00:48:07;;;;;;;5.68;3.25;;;;;;;-146.25;100.00;52678.44;2071672;28;20052;-63
2024/02/16 00:49:10;;;;;;;6.30;3.63;;;;;;;-146.25;100.00;52611.50;2072282;28;20077;-63
2024/02/16 00:50:12;;;;;;;6.68;3.42;;;;;;;-146.25;100.00;52639.91;2070859;28;20038;-63
2024/02/16 00:51:14;;;;;;;5.55;3.67;;;;;;;-146.25;100.00;52633.81;2071080;28;34131;-63
2024/02/16 00:52:17;;;;;;;5.32;3.55;;;;;;;-146.25;100.00;52700.72;2062596;28;32356;-63
2024/02/16 00:53:19;;;;;;;5.53;3.17;;;;;;;-146.25;100.00;52712.91;2062766;28;35517;-63
2024/02/16 00:54:21;;;;;;;4.05;3.25;;;;;;;-146.25;100.00;52698.72;2071896;28;32967;-63
2024/02/16 00:55:22;;;;;;;8.43;3.70;;;;;;;-146.25;100.00;52666.25;2071721;28;20041;-63
2024/02/16 00:56:24;;;;;;;9.70;3.70;;;;;;;-146.25;100.00;52648.00;2071454;28;34850;-63
2024/02/16 00:57:26;;;;;;;5.15;3.00;;;;;;;-146.25;100.00;52635.84;2071508;28;31043;-63
2024/02/16 00:58:28;;;;;;;6.32;3.53;;;;;;;-146.25;100.00;52696.69;2071012;28;30819;-63
2024/02/16 00:59:30;;;;;;;5.57;3.55;;;;;;;-146.25;100.00;52668.28;2072014;28;33355;-64
2024/02/16 01:00:32;;;;;;;4.93;3.22;;;;;;;-146.25;100.00;52650.03;2071405;28;27369;-63
2024/02/16 01:01:35;;;;;;;10.85;4.22;;;;;;;-146.25;100.00;52690.59;2071019;28;37007;-63
2024/02/16 01:02:37;;;;;;;7.18;3.78;;;;;;;-146.25;100.00;52692.63;2071722;28;20049;-63
2024/02/16 01:03:39;;;;;;;5.45;3.58;;;;;;;-146.25;100.00;52639.91;2072329;28;35309;-64
2024/02/16 01:04:40;;;;;;;9.18;3.70;;;;;;;-146.25;100.00;52629.75;2079433;28;30405;-63
2024/02/16 01:05:42;;;;;;;5.63;3.28;;;;;;;-146.25;100.00;52641.94;2079454;28;30968;-63
2024/02/16 01:06:44;;;;;;;6.38;3.35;;;;;;;-146.25;100.00;52656.13;2079774;28;31946;-63
2024/02/16 01:07:46;;;;;;;8.40;3.58;;;;;;;-146.25;100.00;52656.13;2079582;28;32511;-63
2024/02/16 01:08:48;;;;;;;7.15;3.47;;;;;;;-146.25;100.00;52660.19;2079108;28;33682;-64
2024/02/16 01:09:50;;;;;;;7.68;3.70;;;;;;;-146.25;100.00;52652.06;2079474;28;36012;-63
2024/02/16 01:10:52;;;;;;;8.88;3.80;;;;;;;-146.25;100.00;52654.09;2079460;28;32202;-63
2024/02/16 01:11:53;;;;;;;9.73;3.53;;;;;;;-146.25;100.00;52633.81;2079765;28;29118;-64
2024/02/16 01:12:56;;;;;;;6.40;3.30;;;;;;;-146.25;100.00;52668.28;2079676;28;29834;-63
2024/02/16 01:13:57;;;;;;;5.88;3.40;;;;;;;-146.25;100.00;52660.19;2079200;28;34376;-63
2024/02/16 01:14:59;;;;;;;6.70;3.78;;;;;;;-146.25;100.00;52672.34;2079371;28;33625;-63
2024/02/16 01:16:03;;;;;;;6.63;3.58;;;;;;;-146.25;100.00;52660.19;2079519;28;33071;-63
2024/02/16 01:17:05;;;;;;;10.45;3.42;;;;;;;-146.25;100.00;52645.97;2079415;28;35089;-63
2024/02/16 01:18:07;;;;;;;5.63;3.88;;;;;;;-146.25;100.00;52672.34;2079562;28;33884;-63
2024/02/16 01:19:09;;;;;;;7.60;3.60;;;;;;;-146.25;100.00;52662.22;2078922;28;37022;-63
2024/02/16 01:20:14;;;;;;;5.55;3.53;;;;;;;-146.25;100.00;52641.94;2079559;28;25994;-63
2024/02/16 01:21:17;;;;;;;4.57;3.40;;;;;;;-146.25;100.00;52668.28;2079581;28;30029;-63
2024/02/16 01:22:19;;;;;;;3.30;2.90;;;;;;;-146.25;100.00;52637.88;2078885;28;32855;-63
2024/02/16 01:23:23;;;;;;;9.18;3.50;;;;;;;-146.25;100.00;52676.41;2078833;28;33280;-63
2024/02/16 01:24:27;;;;;;;4.97;3.60;;;;;;;-146.25;100.00;52643.97;2080168;28;20045;-63
2024/02/16 01:25:29;;;;;;;6.38;3.60;;;;;;;-146.25;100.00;52658.16;2079291;28;21438;-63
2024/02/16 01:26:32;;;;;;;5.97;3.33;;;;;;;-146.25;100.00;52625.72;2079615;28;36672;-63
2024/02/16 01:27:35;;;;;;;6.63;3.35;;;;;;;-146.25;100.00;52668.28;2079105;28;37447;-63
2024/02/16 01:28:37;;;;;;;7.80;3.03;;;;;;;-146.25;100.00;52658.16;2079362;28;31044;-64
2024/02/16 01:29:39;;;;;;;7.72;3.25;;;;;;;-146.25;100.00;52654.09;2078981;28;33265;-63
2024/02/16 01:30:40;;;;;;;7.30;3.20;;;;;;;-146.25;100.00;52676.41;2079558;28;34546;-63
2024/02/16 01:31:42;;;;;;;7.82;3.72;;;;;;;-146.25;100.00;52629.75;2079418;28;27938;-64
2024/02/16 01:32:46;;;;;;;6.28;3.38;;;;;;;-146.25;100.00;52615.56;2079221;28;33565;-63
2024/02/16 01:33:48;;;;;;;5.60;3.47;;;;;;;-146.25;100.00;52680.47;2078815;28;35681;-63
2024/02/16 01:34:50;;;;;;;6.75;3.35;;;;;;;-146.25;100.00;52668.28;2079149;28;34034;-63
2024/02/16 01:35:52;;;;;;;6.93;3.60;;;;;;;-146.25;100.00;52672.34;2079195;28;34436;-63
2024/02/16 01:36:54;;;;;;;8.93;3.30;;;;;;;-146.25;100.00;52664.22;2079538;28;28931;-63
2024/02/16 01:37:56;;;;;;;6.75;3.00;;;;;;;-146.25;100.00;52656.13;2080021;28;20782;-63
2024/02/16 01:38:58;;;;;;;7.00;3.47;;;;;;;-146.25;100.00;52613.53;2078261;28;35980;-63
2024/02/16 01:39:59;;;;;;;4.28;3.20;;;;;;;-146.25;100.00;52668.28;2078916;28;33369;-63
2024/02/16 01:41:01;;;;;;;8.32;3.00;;;;;;;-146.25;100.00;52664.22;2079980;28;20042;-63
2024/02/16 01:42:04;;;;;;;7.50;3.65;;;;;;;-146.25;100.00;52680.47;2078941;28;35205;-63
2024/02/16 01:43:08;;;;;;;4.55;3.10;;;;;;;-146.25;100.00;52637.88;2079470;28;20038;-63
2024/02/16 01:44:10;;;;;;;6.15;3.10;;;;;;;-146.25;100.00;52676.41;2080599;28;20073;-63
2024/02/16 01:45:16;;;;;;;7.75;3.30;;;;;;;-146.25;100.00;52670.31;2079282;28;33041;-63
2024/02/16 01:46:18;;;;;;;7.70;3.22;;;;;;;-146.25;100.00;52660.19;2078468;28;36591;-63
2024/02/16 01:47:20;;;;;;;6.53;3.13;;;;;;;-146.25;100.00;52688.56;2079577;28;32746;-63
2024/02/16 01:48:21;;;;;;;5.40;3.22;;;;;;;-146.25;100.00;52668.28;2079088;28;36210;-63
2024/02/16 01:49:23;;;;;;;5.50;3.03;;;;;;;-146.25;100.00;52660.19;2078910;28;34686;-64
2024/02/16 01:50:29;;;;;;;4.25;2.83;;;;;;;-146.25;100.00;52672.34;2079387;28;20087;-63
2024/02/16 01:51:33;;;;;;;5.65;3.33;;;;;;;-146.25;100.00;52674.38;2070540;28;35520;-63
2024/02/16 01:52:36;;;;;;;9.25;3.40;;;;;;;-146.25;100.00;52676.41;2070654;28;32908;-63
2024/02/16 01:53:39;;;;;;;3.88;2.70;;;;;;;-146.25;100.00;52672.34;2070134;28;33656;-63
2024/02/16 01:54:41;;;;;;;9.95;3.28;;;;;;;-146.25;100.00;52639.91;2070985;28;35919;-63
2024/02/16 01:55:44;;;;;;;7.25;3.00;;;;;;;-146.25;100.00;52662.22;2079480;28;20858;-63
2024/02/16 01:56:51;;;;;;;7.82;3.00;;;;;;;-146.25;100.00;52692.63;2070828;28;23269;-64
2024/02/16 01:57:54;;;;;;;6.70;2.83;;;;;;;-146.25;100.00;52623.69;2063829;28;32216;-64
2024/02/16 01:58:56;;;;;;;6.30;2.92;;;;;;;-146.25;100.00;52660.19;2064361;28;20053;-63
2024/02/16 01:59:58;;;;;;;7.15;3.08;;;;;;;-146.25;100.00;52645.97;2072594;28;20944;-63
2024/02/16 02:01:01;;;;;;;3.92;2.55;;;;;;;-146.25;100.00;52652.06;2081256;28;20038;-64
2024/02/16 02:02:03;;;;;;;8.30;3.15;;;;;;;-146.25;100.00;52648.00;2080224;28;39181;-64
2024/02/16 02:03:05;;;;;;;6.38;3.33;;;;;;;-146.25;100.00;52639.91;2080883;28;34228;-63
2024/02/16 02:04:07;;;;;;;6.70;3.05;;;;;;;-146.25;100.00;52654.09;2081052;28;20042;-64
2024/02/16 02:05:12;;;;;;;6.20;2.72;;;;;;;-146.25;100.00;52645.97;2081042;28;20153;-63
2024/02/16 02:06:14;;;;;;;4.43;2.70;;;;;;;-146.25;100.00;52662.22;2081406;28;20046;-63
2024/02/16 02:07:18;;;;;;;9.60;2.88;;;;;;;-146.25;100.00;52706.81;2080624;28;32322;-63
2024/02/16 02:08:20;;;;;;;7.60;2.67;;;;;;;-146.25;100.00;52678.44;2080654;28;34002;-63
2024/02/16 02:09:22;;;;;;;6.88;2.83;;;;;;;-146.25;100.00;52680.47;2080581;28;30572;-63
2024/02/16 02:10:24;;;;;;;5.85;2.70;;;;;;;-146.25;100.00;52692.63;2080081;28;39242;-63
2024/02/16 02:11:28;;;;;;;6.57;3.15;;;;;;;-146.25;100.00;52652.06;2081019;28;28035;-63
2024/02/16 02:12:30;;;;;;;4.60;2.88;;;;;;;-146.25;100.00;52652.06;2081405;28;20835;-63
2024/02/16 02:13:31;;;;;;;7.32;2.60;;;;;;;-146.25;100.00;52676.41;2081204;28;34841;-63
2024/02/16 02:14:33;;;;;;;6.35;2.88;;;;;;;-146.25;100.00;52639.91;2079799;28;33481;-63
2024/02/16 02:15:37;;;;;;;5.68;2.35;;;;;;;-146.25;100.00;52666.25;2080623;28;34965;-63
2024/02/16 02:16:42;;;;;;;6.15;2.90;;;;;;;-146.25;100.00;52702.75;2080778;28;35126;-63
2024/02/16 02:17:48;;;;;;;6.82;2.50;;;;;;;-146.25;100.00;52658.16;2080401;28;34930;-63
2024/02/16 02:18:52;;;;;;;6.45;2.40;;;;;;;-146.25;100.00;52658.16;2080827;28;35120;-63
2024/02/16 02:19:55;;;;;;;6.40;2.88;;;;;;;-146.25;100.00;52688.56;2081103;28;20072;-63
2024/02/16 02:20:57;;;;;;;6.88;2.60;;;;;;;-146.25;100.00;52676.41;2081025;28;20050;-64
2024/02/16 02:22:00;;;;;;;5.32;2.55;;;;;;;-146.25;100.00;52611.50;2080673;28;32232;-63
2024/02/16 02:23:03;;;;;;;7.22;2.88;;;;;;;-146.25;100.00;52623.69;2080315;28;35473;-63
2024/02/16 02:24:09;;;;;;;6.18;2.50;;;;;;;-146.25;100.00;52631.78;2080322;28;31451;-64
2024/02/16 02:25:11;;;;;;;4.25;2.38;;;;;;;-146.25;100.00;52617.59;2080789;28;30720;-63
2024/02/16 02:26:18;;;;;;;5.07;2.67;;;;;;;-146.25;100.00;52635.84;2080420;28;33946;-63
2024/02/16 02:27:21;;;;;;;6.43;2.72;;;;;;;-146.25;100.00;52656.13;2080392;28;34501;-64
2024/02/16 02:28:24;;;;;;;3.63;2.42;;;;;;;-146.25;100.00;52641.94;2080815;28;32723;-63
2024/02/16 02:29:26;;;;;;;4.20;2.42;;;;;;;-146.25;100.00;52678.44;2080664;28;33874;-64
2024/02/16 02:30:28;;;;;;;3.88;2.20;;;;;;;-146.25;100.00;52654.09;2080295;28;35713;-64
2024/02/16 02:31:29;;;;;;;7.32;2.50;;;;;;;-146.25;100.00;52668.28;2081255;28;20038;-64
2024/02/16 02:32:32;;;;;;;7.20;2.40;;;;;;;-146.25;100.00;52654.09;2080493;28;36512;-63
2024/02/16 02:33:34;;;;;;;9.68;2.38;;;;;;;-146.25;100.00;52660.19;2080489;28;31041;-63
2024/02/16 02:34:36;;;;;;;6.18;2.42;;;;;;;-146.25;100.00;52682.47;2071521;28;35201;-63
2024/02/16 02:35:39;;;;;;;6.97;2.72;;;;;;;-146.25;100.00;52656.13;2071634;28;31177;-63
2024/02/16 02:36:41;;;;;;;6.75;2.80;;;;;;;-146.25;100.00;52660.19;2080843;28;20837;-63
2024/02/16 02:37:43;;;;;;;5.65;2.38;;;;;;;-146.25;100.00;52666.25;2080496;28;31245;-63
2024/02/16 02:38:47;;;;;;;4.00;1.85;;;;;;;-146.25;100.00;52674.38;2080964;28;20030;-63
2024/02/16 02:39:51;;;;;;;4.88;2.40;;;;;;;-146.25;100.00;52684.50;2080505;28;23370;-63
2024/02/16 02:40:53;;;;;;;5.43;2.38;;;;;;;-146.25;100.00;52678.44;2080212;28;36451;-63
2024/02/16 02:41:55;;;;;;;4.32;2.28;;;;;;;-146.25;100.00;52656.13;2080732;28;33237;-62
2024/02/16 02:42:57;;;;;;;5.63;2.00;;;;;;;-146.25;100.00;52706.81;2080371;28;36353;-63
2024/02/16 02:43:59;;;;;;;9.20;2.50;;;;;;;-146.25;100.00;52672.34;2080156;28;34993;-63
2024/02/16 02:45:03;;;;;;;5.68;2.42;;;;;;;-146.25;100.00;52662.22;2080838;28;20353;-64
2024/02/16 02:46:05;;;;;;;7.55;2.75;;;;;;;-146.25;100.00;52676.41;2081341;28;20064;-64
2024/02/16 02:47:07;;;;;;;5.05;2.28;;;;;;;-146.25;100.00;52674.38;2080342;28;35330;-63
2024/02/16 02:48:08;;;;;;;4.53;2.10;;;;;;;-146.25;100.00;52623.69;2080168;28;36357;-63
2024/02/16 02:49:10;;;;;;;5.10;2.17;;;;;;;-146.25;100.00;52648.00;2081176;28;20806;-64
2024/02/16 02:50:12;;;;;;;5.45;2.20;;;;;;;-146.25;100.00;52648.00;2079509;28;37661;-63
2024/02/16 02:51:15;;;;;;;9.30;2.38;;;;;;;-146.25;100.00;52678.44;2080855;28;33575;-63
2024/02/16 02:52:17;;;;;;;4.03;1.60;;;;;;;-146.25;100.00;52712.91;2081086;28;20139;-64
2024/02/16 02:53:19;;;;;;;3.50;1.70;;;;;;;-146.25;100.00;52668.28;2079876;28;37041;-63
2024/02/16 02:54:21;;;;;;;6.57;2.03;;;;;;;-146.25;100.00;52648.00;2080587;28;32752;-64
2024/02/16 02:55:22;;;;;;;4.82;2.08;;;;;;;-146.25;100.00;52648.00;2080483;28;20932;-63
2024/02/16 02:56:24;;;;;;;4.47;2.10;;;;;;;-146.25;100.00;52599.34;2081393;28;20053;-63
2024/02/16 02:57:26;;;;;;;4.22;2.20;;;;;;;-146.25;100.00;52662.22;2080846;28;20152;-63
2024/02/16 02:58:28;;;;;;;5.93;2.50;;;;;;;-146.25;100.00;52652.06;2080136;28;34469;-63
2024/02/16 02:59:30;;;;;;;3.80;1.90;;;;;;;-146.25;100.00;52696.69;2080932;28;20592;-63
2024/02/16 03:00:32;;;;;;;10.20;2.17;;;;;;;-146.25;100.00;52676.41;2079667;28;35881;-64
2024/02/16 03:01:35;;;;;;;5.20;2.20;;;;;;;-146.25;100.00;52676.41;2079997;28;35280;-63
2024/02/16 03:02:42;;;;;;;5.30;1.98;;;;;;;-146.25;100.00;52654.09;2080178;28;36336;-63
2024/02/16 03:03:43;;;;;;;6.80;2.38;;;;;;;-146.25;100.00;52662.22;2071580;28;20620;-64
2024/02/16 03:04:45;;;;;;;4.97;2.10;;;;;;;-146.25;100.00;52674.38;2071588;28;33382;-62
2024/02/16 03:05:48;;;;;;;3.92;1.90;;;;;;;-146.25;100.00;52637.88;2080630;28;20116;-63
2024/02/16 03:06:53;;;;;;;4.15;2.08;;;;;;;-146.25;100.00;52609.50;2080656;28;32255;-63
2024/02/16 03:07:55;;;;;;;7.00;2.22;;;;;;;-146.25;100.00;52670.31;2080449;28;33530;-63
2024/02/16 03:08:57;;;;;;;4.20;1.90;;;;;;;-146.25;100.00;52633.81;2079924;28;33798;-63
2024/02/16 03:09:59;;;;;;;3.13;1.90;;;;;;;-146.25;100.00;52650.03;2079590;28;32825;-63
2024/02/16 03:11:01;;;;;;;4.70;2.17;;;;;;;-146.25;100.00;52662.22;2080199;28;30426;-64
2024/02/16 03:12:04;;;;;;;4.28;1.98;;;;;;;-146.25;100.00;52672.34;2079995;28;33999;-63
2024/02/16 03:13:09;;;;;;;5.22;2.30;;;;;;;-146.25;100.00;52664.22;2080280;28;32562;-64
2024/02/16 03:14:11;;;;;;;4.28;2.10;;;;;;;-146.25;100.00;52643.97;2079714;28;37021;-63
2024/02/16 03:15:13;;;;;;;5.28;2.10;;;;;;;-146.25;100.00;52658.16;2080786;28;20082;-64
2024/02/16 03:16:14;;;;;;;5.30;1.83;;;;;;;-146.25;100.00;52664.22;2080213;28;35096;-63
2024/02/16 03:17:16;;;;;;;3.08;1.85;;;;;;;-146.25;100.00;52635.84;2080356;28;32395;-63
2024/02/16 03:18:22;;;;;;;5.03;1.80;;;;;;;-146.25;100.00;52670.31;2071228;28;32656;-63
2024/02/16 03:19:24;;;;;;;4.15;2.08;;;;;;;-146.25;100.00;52688.56;2072059;28;31030;-63
2024/02/16 03:20:26;;;;;;;6.15;1.95;;;;;;;-146.25;100.00;52648.00;2079887;28;37131;-63
2024/02/16 03:21:28;;;;;;;3.17;1.77;;;;;;;-146.25;100.00;52670.31;2080811;28;20034;-63
2024/02/16 03:22:29;;;;;;;5.55;1.90;;;;;;;-146.25;100.00;52670.31;2080187;28;38280;-63
2024/02/16 03:23:33;;;;;;;5.75;2.28;;;;;;;-146.25;100.00;52652.06;2080658;28;20173;-64
2024/02/16 03:24:35;;;;;;;8.32;2.20;;;;;;;-146.25;100.00;52639.91;2079706;28;35938;-63
2024/02/16 03:25:37;;;;;;;9.60;2.00;;;;;;;-146.25;100.00;52643.97;2079896;28;34870;-63
2024/02/16 03:26:39;;;;;;;5.07;1.85;;;;;;;-146.25;100.00;52660.19;2079607;28;33161;-63
2024/02/16 03:27:41;;;;;;;4.28;1.92;;;;;;;-146.25;100.00;52678.44;2080139;28;34737;-63
2024/02/16 03:28:47;;;;;;;5.68;2.22;;;;;;;-146.25;100.00;52670.31;2080664;28;20138;-63
2024/02/16 03:29:49;;;;;;;5.15;1.80;;;;;;;-146.25;100.00;52678.44;2079723;28;36272;-63
2024/02/16 03:30:50;;;;;;;5.45;1.85;;;;;;;-146.25;100.00;52650.03;2080202;28;34688;-63
2024/02/16 03:31:52;;;;;;;6.43;1.80;;;;;;;-146.25;100.00;52635.84;2080183;28;34199;-63
2024/02/16 03:32:57;;;;;;;4.20;1.88;;;;;;;-146.25;100.00;52652.06;2080064;28;37974;-64
2024/02/16 03:33:59;;;;;;;4.50;2.10;;;;;;;-146.25;100.00;52660.19;2080840;28;20038;-64
2024/02/16 03:35:02;;;;;;;3.00;1.95;;;;;;;-146.25;100.00;52680.47;2080136;28;36171;-63
2024/02/16 03:36:04;;;;;;;4.82;2.00;;;;;;;-146.25;100.00;52674.38;2079881;28;24677;-63
2024/02/16 03:37:06;;;;;;;5.95;1.98;;;;;;;-146.25;100.00;52694.66;2079862;28;32878;-63
2024/02/16 03:38:08;;;;;;;6.68;2.30;;;;;;;-146.25;100.00;52652.06;2080077;28;34822;-64
2024/02/16 03:39:09;;;;;;;4.50;1.80;;;;;;;-146.25;100.00;52682.47;2080306;28;34075;-63
2024/02/16 03:40:12;;;;;;;7.90;2.40;;;;;;;-146.25;100.00;52658.16;2080407;28;32196;-64
2024/02/16 03:41:19;;;;;;;3.90;1.70;;;;;;;-146.25;100.00;52672.34;2079751;28;37959;-63
2024/02/16 03:42:20;;;;;;;6.68;2.00;;;;;;;-146.25;100.00;52672.34;2080600;28;30578;-63
2024/02/16 03:43:22;;;;;;;4.28;1.73;;;;;;;-146.25;100.00;52643.97;2079821;28;35942;-63
2024/02/16 03:44:27;;;;;;;7.63;1.98;;;;;;;-146.25;100.00;52708.84;2079883;28;31752;-64
2024/02/16 03:45:29;;;;;;;5.00;2.17;;;;;;;-146.25;100.00;52645.97;2079489;28;34850;-63
2024/02/16 03:46:31;;;;;;;6.38;2.03;;;;;;;-146.25;100.00;52660.19;2080221;28;36568;-63
2024/02/16 03:47:33;;;;;;;4.50;1.77;;;;;;;-146.25;100.00;52658.16;2080060;28;33650;-64
2024/02/16 03:48:35;;;;;;;4.43;2.00;;;;;;;-146.25;100.00;52658.16;2079971;28;32641;-63
2024/02/16 03:49:39;;;;;;;5.45;2.30;;;;;;;-146.25;100.00;52666.25;2079834;28;37830;-63
2024/02/16 03:50:41;;;;;;;4.75;2.20;;;;;;;-146.25;100.00;52674.38;2080568;28;20073;-63
2024/02/16 03:51:45;;;;;;;4.90;2.05;;;;;;;-146.25;100.00;52664.22;2079749;28;37492;-63
2024/02/16 03:52:48;;;;;;;4.32;1.58;;;;;;;-146.25;100.00;52698.72;2080259;28;22549;-63
2024/02/16 03:53:50;;;;;;;4.28;2.03;;;;;;;-146.25;100.00;52639.91;2079959;28;34945;-63
2024/02/16 03:54:51;;;;;;;4.47;1.80;;;;;;;-146.25;100.00;52668.28;2071106;28;36945;-63
2024/02/16 03:55:54;;;;;;;4.30;1.77;;;;;;;-146.25;100.00;52668.28;2071157;28;30266;-63
2024/02/16 03:56:58;;;;;;;6.65;2.22;;;;;;;-146.25;100.00;52664.22;2080220;28;32821;-63
2024/02/16 03:58:00;;;;;;;4.60;1.90;;;;;;;-146.25;100.00;52676.41;2080320;28;35431;-63
2024/02/16 03:59:04;;;;;;;4.95;2.00;;;;;;;-146.25;100.00;52666.25;2071278;28;32227;-63
2024/02/16 04:00:08;;;;;;;5.75;2.33;;;;;;;-146.25;100.00;52672.34;2071458;28;35103;-63
2024/02/16 04:01:15;;;;;;;5.50;1.90;;;;;;;-146.25;100.00;52668.28;2080990;28;20038;-63
2024/02/16 04:02:18;;;;;;;7.30;2.72;;;;;;;-146.25;100.00;52658.16;2079693;28;35352;-63
2024/02/16 04:03:20;;;;;;;7.60;2.25;;;;;;;-146.25;100.00;52631.78;2080206;28;28854;-63
2024/02/16 04:04:22;;;;;;;5.57;2.20;;;;;;;-146.25;100.00;52676.41;2079869;28;32435;-63
2024/02/16 04:05:24;;;;;;;5.15;2.00;;;;;;;-146.25;100.00;52670.31;2079338;28;34953;-64
2024/02/16 04:06:26;;;;;;;5.45;2.28;;;;;;;-146.25;100.00;52674.38;2079865;28;35849;-63
2024/02/16 04:07:28;;;;;;;4.95;1.77;;;;;;;-146.25;100.00;52637.88;2080268;28;20573;-63
2024/02/16 04:08:30;;;;;;;5.78;2.00;;;;;;;-146.25;100.00;52654.09;2080118;28;38027;-63
2024/02/16 04:09:32;;;;;;;7.63;2.28;;;;;;;-146.25;100.00;52676.41;2080341;28;25448;-63
2024/02/16 04:10:34;;;;;;;3.80;1.70;;;;;;;-146.25;100.00;52637.88;2079700;28;33745;-64
2024/02/16 04:11:36;;;;;;;7.65;2.25;;;;;;;-146.25;100.00;52658.16;2079868;28;34410;-63
2024/02/16 04:12:37;;;;;;;4.93;2.30;;;;;;;-146.25;100.00;52723.03;2079805;28;31016;-63
2024/02/16 04:13:39;;;;;;;5.80;2.20;;;;;;;-146.25;100.00;52704.78;2080297;28;20177;-63
2024/02/16 04:14:44;;;;;;;4.40;1.80;;;;;;;-146.25;100.00;52674.38;2079855;28;32509;-62
2024/02/16 04:15:46;;;;;;;4.63;2.00;;;;;;;-146.25;100.00;52648.00;2071106;28;34531;-63
2024/02/16 04:16:49;;;;;;;4.80;2.00;;;;;;;-146.25;100.00;52660.19;2071528;28;32645;-63
2024/02/16 04:17:50;;;;;;;5.35;2.05;;;;;;;-146.25;100.00;52684.50;2079973;28;37254;-63
2024/02/16 04:18:52;;;;;;;2.83;1.80;;;;;;;-146.25;100.00;52631.78;2080480;28;20159;-63
2024/02/16 04:19:54;;;;;;;5.22;2.05;;;;;;;-146.25;100.00;52654.09;2079923;28;33627;-64
2024/02/16 04:20:56;;;;;;;6.57;2.15;;;;;;;-146.25;100.00;52656.13;2078927;28;36475;-63
2024/02/16 04:22:00;;;;;;;3.42;1.80;;;;;;;-146.25;100.00;52650.03;2080463;28;20919;-64
2024/02/16 04:23:02;;;;;;;4.35;2.00;;;;;;;-146.25;100.00;52688.56;2079644;28;35808;-63
2024/02/16 04:24:05;;;;;;;5.90;1.98;;;;;;;-146.25;100.00;52662.22;2079442;28;35603;-63
2024/02/16 04:25:07;;;;;;;4.88;1.88;;;;;;;-146.25;100.00;52676.41;2079724;28;32345;-63
2024/02/16 04:26:08;;;;;;;4.43;2.00;;;;;;;-146.25;100.00;52668.28;2079549;28;36419;-64
2024/02/16 04:27:12;;;;;;;4.30;1.83;;;;;;;-146.25;100.00;52666.25;2080028;28;34938;-63
2024/02/16 04:28:15;;;;;;;4.57;1.70;;;;;;;-146.25;100.00;52692.63;2079654;28;33048;-63
2024/02/16 04:29:16;;;;;;;6.50;2.10;;;;;;;-146.25;100.00;52627.75;2079658;28;35119;-63
2024/02/16 04:30:18;;;;;;;4.38;2.20;;;;;;;-146.25;100.00;52652.06;2079646;28;35334;-63
2024/02/16 04:31:20;;;;;;;7.75;2.15;;;;;;;-146.25;100.00;52672.34;2080007;28;32294;-63
2024/02/16 04:32:25;;;;;;;2.45;1.50;;;;;;;-146.25;100.00;52670.31;2079770;28;33359;-63
2024/02/16 04:33:27;;;;;;;4.32;2.20;;;;;;;-146.25;100.00;52656.13;2079511;28;36834;-63
2024/02/16 04:34:29;;;;;;;4.70;2.25;;;;;;;-146.25;100.00;52660.19;2079504;28;36884;-63
2024/02/16 04:35:31;;;;;;;3.95;1.77;;;;;;;-146.25;100.00;52668.28;2079556;28;32087;-63
2024/02/16 04:36:33;;;;;;;9.27;2.50;;;;;;;-146.25;100.00;52692.63;2079428;28;35393;-63
2024/02/16 04:37:36;;;;;;;5.43;2.35;;;;;;;-146.25;100.00;52645.97;2080082;28;36959;-63
2024/02/16 04:38:40;;;;;;;3.17;1.77;;;;;;;-146.25;100.00;52678.44;2079612;28;33397;-63
2024/02/16 04:39:42;;;;;;;5.15;2.22;;;;;;;-146.25;100.00;52684.50;2079317;28;39321;-63
2024/02/16 04:40:44;;;;;;;4.00;1.98;;;;;;;-146.25;100.00;52639.91;2079496;28;30693;-63
2024/02/16 04:41:46;;;;;;;4.80;2.20;;;;;;;-146.25;100.00;52637.88;2080236;28;33077;-63
2024/02/16 04:42:48;;;;;;;3.55;2.00;;;;;;;-146.25;100.00;52690.59;2079530;28;35762;-63
2024/02/16 04:43:49;;;;;;;4.18;2.33;;;;;;;-146.25;100.00;52666.25;2079984;28;20029;-63